CEI weather

Chiang Rai International Airport
Chiang Rai, Chiang Rai Province, Thailand

Public forecast

Using degrees Celsius for public forecast. Weather courtesy of forecast.io.

Current aviation weather report (METAR) for Chiang Rai International Airport

Retrieved 2019/10/17 01:00 UTC (26 minutes ago):

VTCT 170100Z 00000KT 8000 FEW012 25/23 Q1017 NOSIG

Aviation forecast (TAF) for Chiang Rai International Airport

Retrieved 2019-10-17 00:00 UTC (1 hour ago):

TAF VTCT 162300Z 1700/1806 06005KT 9999 SCT035 TEMPO 1706/1712 VRB15G25KT 5000 TSRA FEW020CB BKN030